sensor_id;sensor_type;location;lat;lon;timestamp;pressure;altitude;pressure_sealevel;temperature;humidity
27334;BME280;14817;57.104;-2.094;2023-01-16T00:02:17;98107.06;;;-0.45;100.00
27334;BME280;14817;57.104;-2.094;2023-01-16T00:04:44;98116.22;;;-0.49;100.00
27334;BME280;14817;57.104;-2.094;2023-01-16T00:07:10;98105.00;;;-0.51;100.00
27334;BME280;14817;57.104;-2.094;2023-01-16T00:09:37;98104.03;;;-0.40;100.00
27334;BME280;14817;57.104;-2.094;2023-01-16T00:12:04;98099.09;;;-0.53;100.00
27334;BME280;14817;57.104;-2.094;2023-01-16T00:14:30;98095.47;;;-0.52;100.00
27334;BME280;14817;57.104;-2.094;2023-01-16T00:16:57;98092.53;;;-0.49;100.00
27334;BME280;14817;57.104;-2.094;2023-01-16T00:19:25;98101.69;;;-0.44;100.00
27334;BME280;14817;57.104;-2.094;2023-01-16T00:24:36;98095.19;;;-0.49;100.00
27334;BME280;14817;57.104;-2.094;2023-01-16T00:27:02;98091.97;;;-0.33;100.00
27334;BME280;14817;57.104;-2.094;2023-01-16T00:29:29;98090.88;;;-0.40;100.00
27334;BME280;14817;57.104;-2.094;2023-01-16T00:31:55;98079.94;;;-0.46;100.00
27334;BME280;14817;57.104;-2.094;2023-01-16T00:34:22;98084.09;;;-0.43;100.00
27334;BME280;14817;57.104;-2.094;2023-01-16T00:36:49;98074.94;;;-0.39;100.00
27334;BME280;14817;57.104;-2.094;2023-01-16T00:39:16;98074.13;;;-0.39;100.00
27334;BME280;14817;57.104;-2.094;2023-01-16T00:41:43;98081.19;;;-0.40;100.00
27334;BME280;14817;57.104;-2.094;2023-01-16T00:44:09;98083.03;;;-0.50;100.00
27334;BME280;14817;57.104;-2.094;2023-01-16T00:46:36;98078.16;;;-0.45;100.00
27334;BME280;14817;57.104;-2.094;2023-01-16T00:49:03;98079.81;;;-0.44;100.00
27334;BME280;14817;57.104;-2.094;2023-01-16T00:51:29;98082.16;;;-0.41;100.00
27334;BME280;14817;57.104;-2.094;2023-01-16T00:53:56;98092.66;;;-0.31;100.00
27334;BME280;14817;57.104;-2.094;2023-01-16T00:56:25;98092.09;;;-0.35;100.00
27334;BME280;14817;57.104;-2.094;2023-01-16T00:58:53;98084.09;;;-0.43;100.00
27334;BME280;14817;57.104;-2.094;2023-01-16T01:01:19;98080.09;;;-0.47;100.00
27334;BME280;14817;57.104;-2.094;2023-01-16T01:03:46;98078.94;;;-0.35;100.00
27334;BME280;14817;57.104;-2.094;2023-01-16T01:06:12;98081.59;;;-0.35;100.00
27334;BME280;14817;57.104;-2.094;2023-01-16T01:08:39;98083.00;;;-0.40;100.00
27334;BME280;14817;57.104;-2.094;2023-01-16T01:11:07;98090.09;;;-0.51;100.00
27334;BME280;14817;57.104;-2.094;2023-01-16T01:13:34;98071.94;;;-0.44;100.00
27334;BME280;14817;57.104;-2.094;2023-01-16T01:16:01;98084.28;;;-0.54;100.00
27334;BME280;14817;57.104;-2.094;2023-01-16T01:18:27;98075.81;;;-0.48;100.00
27334;BME280;14817;57.104;-2.094;2023-01-16T01:20:54;98075.00;;;-0.49;100.00
27334;BME280;14817;57.104;-2.094;2023-01-16T01:23:21;98073.88;;;-0.56;100.00
27334;BME280;14817;57.104;-2.094;2023-01-16T01:25:48;98066.41;;;-0.51;100.00
27334;BME280;14817;57.104;-2.094;2023-01-16T01:28:15;98071.44;;;-0.57;100.00
27334;BME280;14817;57.104;-2.094;2023-01-16T01:30:42;98056.03;;;-0.52;100.00
27334;BME280;14817;57.104;-2.094;2023-01-16T01:33:08;98058.28;;;-0.57;100.00
27334;BME280;14817;57.104;-2.094;2023-01-16T01:35:36;98062.81;;;-0.50;100.00
27334;BME280;14817;57.104;-2.094;2023-01-16T01:38:03;98058.28;;;-0.57;100.00
27334;BME280;14817;57.104;-2.094;2023-01-16T01:40:32;98055.06;;;-0.51;100.00
27334;BME280;14817;57.104;-2.094;2023-01-16T01:42:59;98056.03;;;-0.52;100.00
27334;BME280;14817;57.104;-2.094;2023-01-16T01:45:28;98063.69;;;-0.59;100.00
27334;BME280;14817;57.104;-2.094;2023-01-16T01:53:02;98048.47;;;-0.65;100.00
27334;BME280;14817;57.104;-2.094;2023-01-16T01:55:29;98055.97;;;-0.70;100.00
27334;BME280;14817;57.104;-2.094;2023-01-16T01:57:57;98046.69;;;-0.74;100.00
27334;BME280;14817;57.104;-2.094;2023-01-16T02:00:26;98044.06;;;-0.74;100.00
27334;BME280;14817;57.104;-2.094;2023-01-16T02:05:36;98023.88;;;-0.84;100.00
27334;BME280;14817;57.104;-2.094;2023-01-16T02:08:04;98027.19;;;-0.72;100.00
27334;BME280;14817;57.104;-2.094;2023-01-16T02:13:02;98036.88;;;-0.82;100.00
27334;BME280;14817;57.104;-2.094;2023-01-16T02:15:29;98031.38;;;-0.79;100.00
27334;BME280;14817;57.104;-2.094;2023-01-16T02:17:56;98027.50;;;-0.85;100.00
27334;BME280;14817;57.104;-2.094;2023-01-16T02:23:51;98038.97;;;-0.86;100.00
27334;BME280;14817;57.104;-2.094;2023-01-16T02:31:33;98029.88;;;-0.91;100.00
27334;BME280;14817;57.104;-2.094;2023-01-16T02:39:35;98020.78;;;-1.07;100.00
27334;BME280;14817;57.104;-2.094;2023-01-16T02:49:48;98001.00;;;-1.11;100.00
27334;BME280;14817;57.104;-2.094;2023-01-16T02:52:59;98005.16;;;-1.18;100.00
27334;BME280;14817;57.104;-2.094;2023-01-16T02:55:26;97999.91;;;-1.18;100.00
27334;BME280;14817;57.104;-2.094;2023-01-16T02:57:56;98000.47;;;-1.24;100.00
27334;BME280;14817;57.104;-2.094;2023-01-16T03:00:24;98006.25;;;-1.30;100.00
27334;BME280;14817;57.104;-2.094;2023-01-16T03:02:51;98006.56;;;-1.33;100.00
27334;BME280;14817;57.104;-2.094;2023-01-16T03:05:18;97993.72;;;-1.36;100.00
27334;BME280;14817;57.104;-2.094;2023-01-16T03:10:33;97998.84;;;-1.45;100.00
27334;BME280;14817;57.104;-2.094;2023-01-16T03:18:15;97985.03;;;-1.47;100.00
27334;BME280;14817;57.104;-2.094;2023-01-16T03:25:56;97960.56;;;-1.57;100.00
27334;BME280;14817;57.104;-2.094;2023-01-16T03:30:55;97959.47;;;-1.64;100.00
27334;BME280;14817;57.104;-2.094;2023-01-16T03:33:37;97965.00;;;-1.67;100.00
27334;BME280;14817;57.104;-2.094;2023-01-16T03:36:14;97962.09;;;-1.74;100.00
27334;BME280;14817;57.104;-2.094;2023-01-16T03:38:42;97956.72;;;-1.72;100.00
27334;BME280;14817;57.104;-2.094;2023-01-16T03:41:12;97958.50;;;-1.73;100.00
27334;BME280;14817;57.104;-2.094;2023-01-16T03:43:41;97962.22;;;-1.75;100.00
27334;BME280;14817;57.104;-2.094;2023-01-16T03:46:10;97957.53;;;-1.81;100.00
27334;BME280;14817;57.104;-2.094;2023-01-16T03:48:45;97947.44;;;-1.86;100.00
27334;BME280;14817;57.104;-2.094;2023-01-16T03:51:17;97947.59;;;-1.88;100.00
27334;BME280;14817;57.104;-2.094;2023-01-16T03:53:46;97948.69;;;-1.90;100.00
27334;BME280;14817;57.104;-2.094;2023-01-16T03:56:20;97941.91;;;-1.93;100.00
27334;BME280;14817;57.104;-2.094;2023-01-16T03:58:50;97953.22;;;-1.92;100.00
27334;BME280;14817;57.104;-2.094;2023-01-16T04:01:22;97943.84;;;-1.95;100.00
27334;BME280;14817;57.104;-2.094;2023-01-16T04:04:55;97944.13;;;-1.98;100.00
27334;BME280;14817;57.104;-2.094;2023-01-16T04:06:49;97934.44;;;-2.07;100.00
27334;BME280;14817;57.104;-2.094;2023-01-16T04:09:21;97932.53;;;-2.05;100.00
27334;BME280;14817;57.104;-2.094;2023-01-16T04:11:50;97936.13;;;-2.06;100.00
27334;BME280;14817;57.104;-2.094;2023-01-16T04:14:17;97931.13;;;-2.09;100.00
27334;BME280;14817;57.104;-2.094;2023-01-16T04:16:46;97936.66;;;-2.12;100.00
27334;BME280;14817;57.104;-2.094;2023-01-16T04:19:13;97930.59;;;-2.13;100.00
27334;BME280;14817;57.104;-2.094;2023-01-16T04:21:45;97930.84;;;-2.16;100.00
27334;BME280;14817;57.104;-2.094;2023-01-16T04:24:17;97932.66;;;-2.26;100.00
27334;BME280;14817;57.104;-2.094;2023-01-16T04:26:47;97941.59;;;-2.29;100.00
27334;BME280;14817;57.104;-2.094;2023-01-16T04:29:14;97947.81;;;-2.30;100.00
27334;BME280;14817;57.104;-2.094;2023-01-16T04:31:40;97952.38;;;-2.32;100.00
27334;BME280;14817;57.104;-2.094;2023-01-16T04:34:07;97940.66;;;-2.28;100.00
27334;BME280;14817;57.104;-2.094;2023-01-16T04:36:33;97929.47;;;-2.30;100.00
27334;BME280;14817;57.104;-2.094;2023-01-16T04:39:00;97945.19;;;-2.30;100.00
27334;BME280;14817;57.104;-2.094;2023-01-16T04:41:26;97942.28;;;-2.36;100.00
27334;BME280;14817;57.104;-2.094;2023-01-16T04:44:03;97932.91;;;-2.39;100.00
27334;BME280;14817;57.104;-2.094;2023-01-16T04:46:30;97938.41;;;-2.42;100.00
27334;BME280;14817;57.104;-2.094;2023-01-16T04:48:57;97937.00;;;-2.46;100.00
27334;BME280;14817;57.104;-2.094;2023-01-16T04:51:24;97937.28;;;-2.49;100.00
27334;BME280;14817;57.104;-2.094;2023-01-16T04:53:51;97939.47;;;-2.54;100.00
27334;BME280;14817;57.104;-2.094;2023-01-16T04:56:17;97936.84;;;-2.54;100.00
27334;BME280;14817;57.104;-2.094;2023-01-16T04:58:44;97941.25;;;-2.55;100.00
27334;BME280;14817;57.104;-2.094;2023-01-16T05:01:11;97942.38;;;-2.57;100.00
27334;BME280;14817;57.104;-2.094;2023-01-16T05:03:37;97945.41;;;-2.62;100.00
27334;BME280;14817;57.104;-2.094;2023-01-16T05:06:04;97942.91;;;-2.63;100.00
27334;BME280;14817;57.104;-2.094;2023-01-16T05:08:31;97937.25;;;-2.69;100.00
27334;BME280;14817;57.104;-2.094;2023-01-16T05:11:00;97930.44;;;-2.71;100.00
27334;BME280;14817;57.104;-2.094;2023-01-16T05:13:28;97928.28;;;-2.66;100.00
27334;BME280;14817;57.104;-2.094;2023-01-16T05:15:55;97930.16;;;-2.78;100.00
27334;BME280;14817;57.104;-2.094;2023-01-16T05:18:22;97928.22;;;-2.76;100.00
27334;BME280;14817;57.104;-2.094;2023-01-16T05:20:49;97930.16;;;-2.78;100.00
27334;BME280;14817;57.104;-2.094;2023-01-16T05:23:16;97925.31;;;-2.82;100.00
27334;BME280;14817;57.104;-2.094;2023-01-16T05:25:42;97928.22;;;-2.85;100.00
27334;BME280;14817;57.104;-2.094;2023-01-16T05:28:09;97919.78;;;-2.89;100.00
27334;BME280;14817;57.104;-2.094;2023-01-16T05:30:37;97916.75;;;-2.94;100.00
27334;BME280;14817;57.104;-2.094;2023-01-16T05:33:06;97919.59;;;-2.97;100.00
27334;BME280;14817;57.104;-2.094;2023-01-16T05:35:33;97920.59;;;-2.98;100.00
27334;BME280;14817;57.104;-2.094;2023-01-16T05:37:59;97920.81;;;-3.01;100.00
27334;BME280;14817;57.104;-2.094;2023-01-16T05:40:26;97919.19;;;-3.02;100.00
27334;BME280;14817;57.104;-2.094;2023-01-16T05:42:53;97920.97;;;-3.03;100.00
27334;BME280;14817;57.104;-2.094;2023-01-16T05:45:19;97920.28;;;-3.05;100.00
27334;BME280;14817;57.104;-2.094;2023-01-16T05:47:46;97917.78;;;-3.06;100.00
27334;BME280;14817;57.104;-2.094;2023-01-16T05:50:13;97917.34;;;-3.12;100.00
27334;BME280;14817;57.104;-2.094;2023-01-16T05:52:39;97908.94;;;-3.15;100.00
27334;BME280;14817;57.104;-2.094;2023-01-16T05:55:06;97906.31;;;-3.15;100.00
27334;BME280;14817;57.104;-2.094;2023-01-16T05:57:33;97913.97;;;-3.23;100.00
27334;BME280;14817;57.104;-2.094;2023-01-16T05:59:59;97911.25;;;-3.22;100.00
27334;BME280;14817;57.104;-2.094;2023-01-16T06:02:26;97913.97;;;-3.23;100.00
27334;BME280;14817;57.104;-2.094;2023-01-16T06:04:53;97919.22;;;-3.23;100.00
27334;BME280;14817;57.104;-2.094;2023-01-16T06:07:19;97928.88;;;-3.24;100.00
27334;BME280;14817;57.104;-2.094;2023-01-16T06:09:46;97929.94;;;-3.26;100.00
27334;BME280;14817;57.104;-2.094;2023-01-16T06:12:17;97923.06;;;-3.28;100.00
27334;BME280;14817;57.104;-2.094;2023-01-16T06:14:47;97927.47;;;-3.28;100.00
27334;BME280;14817;57.104;-2.094;2023-01-16T06:17:15;97911.25;;;-3.22;100.00
27334;BME280;14817;57.104;-2.094;2023-01-16T06:19:42;97913.16;;;-3.24;100.00
27334;BME280;14817;57.104;-2.094;2023-01-16T06:22:10;97908.75;;;-3.23;100.00
27334;BME280;14817;57.104;-2.094;2023-01-16T06:24:36;97897.41;;;-3.34;100.00
27334;BME280;14817;57.104;-2.094;2023-01-16T06:27:03;97892.28;;;-3.35;100.00
27334;BME280;14817;57.104;-2.094;2023-01-16T06:29:30;97902.44;;;-3.42;100.00
27334;BME280;14817;57.104;-2.094;2023-01-16T06:31:57;97895.16;;;-3.38;100.00
27334;BME280;14817;57.104;-2.094;2023-01-16T06:34:23;97900.69;;;-3.41;100.00
27334;BME280;14817;57.104;-2.094;2023-01-16T06:36:50;97896.25;;;-3.41;100.00
27334;BME280;14817;57.104;-2.094;2023-01-16T06:39:17;97888.53;;;-3.42;100.00
27334;BME280;14817;57.104;-2.094;2023-01-16T06:41:43;97876.28;;;-3.42;100.00
27334;BME280;14817;57.104;-2.094;2023-01-16T06:44:11;97873.94;;;-3.45;100.00
27334;BME280;14817;57.104;-2.094;2023-01-16T06:46:38;97879.16;;;-3.45;100.00
27334;BME280;14817;57.104;-2.094;2023-01-16T06:49:04;97883.81;;;-3.49;100.00
27334;BME280;14817;57.104;-2.094;2023-01-16T06:51:31;97877.66;;;-3.47;100.00
27334;BME280;14817;57.104;-2.094;2023-01-16T06:53:58;97885.03;;;-3.53;100.00
27334;BME280;14817;57.104;-2.094;2023-01-16T06:56:24;97879.38;;;-3.58;100.00
27334;BME280;14817;57.104;-2.094;2023-01-16T06:58:51;97878.56;;;-3.58;100.00
27334;BME280;14817;57.104;-2.094;2023-01-16T07:01:18;97869.47;;;-3.54;100.00
27334;BME280;14817;57.104;-2.094;2023-01-16T07:03:44;97867.00;;;-3.56;100.00
27334;BME280;14817;57.104;-2.094;2023-01-16T07:06:11;97871.41;;;-3.56;100.00
27334;BME280;14817;57.104;-2.094;2023-01-16T07:08:39;97862.28;;;-3.62;100.00
27334;BME280;14817;57.104;-2.094;2023-01-16T07:11:05;97843.00;;;-3.61;100.00
27334;BME280;14817;57.104;-2.094;2023-01-16T07:13:33;97840.44;;;-3.51;100.00
27334;BME280;14817;57.104;-2.094;2023-01-16T07:16:00;97841.72;;;-3.45;100.00
27334;BME280;14817;57.104;-2.094;2023-01-16T07:18:45;97837.31;;;-3.45;100.00
27334;BME280;14817;57.104;-2.094;2023-01-16T07:21:30;97832.66;;;-3.41;100.00
27334;BME280;14817;57.104;-2.094;2023-01-16T07:24:18;97835.19;;;-3.30;100.00
27334;BME280;14817;57.104;-2.094;2023-01-16T07:26:46;97832.88;;;-3.14;100.00
27334;BME280;14817;57.104;-2.094;2023-01-16T07:29:16;97840.38;;;-2.99;100.00
27334;BME280;14817;57.104;-2.094;2023-01-16T07:31:44;97843.16;;;-2.91;100.00
27334;BME280;14817;57.104;-2.094;2023-01-16T07:34:11;97836.56;;;-2.85;100.00
27334;BME280;14817;57.104;-2.094;2023-01-16T07:36:38;97838.06;;;-2.83;100.00
27334;BME280;14817;57.104;-2.094;2023-01-16T07:39:04;97834.47;;;-2.82;100.00
27334;BME280;14817;57.104;-2.094;2023-01-16T07:41:31;97837.94;;;-2.81;100.00
27334;BME280;14817;57.104;-2.094;2023-01-16T07:43:57;97840.41;;;-2.80;100.00
27334;BME280;14817;57.104;-2.094;2023-01-16T07:46:24;97836.16;;;-2.81;100.00
27334;BME280;14817;57.104;-2.094;2023-01-16T07:48:54;97843.88;;;-2.79;100.00
27334;BME280;14817;57.104;-2.094;2023-01-16T07:51:23;97836.84;;;-2.79;100.00
27334;BME280;14817;57.104;-2.094;2023-01-16T07:53:50;97829.25;;;-2.82;100.00
27334;BME280;14817;57.104;-2.094;2023-01-16T07:56:17;97825.09;;;-2.84;100.00
27334;BME280;14817;57.104;-2.094;2023-01-16T07:58:47;97824.28;;;-2.85;100.00
27334;BME280;14817;57.104;-2.094;2023-01-16T08:01:15;97826.34;;;-2.89;100.00
27334;BME280;14817;57.104;-2.094;2023-01-16T08:03:46;97820.28;;;-2.89;100.00
27334;BME280;14817;57.104;-2.094;2023-01-16T08:06:13;97812.13;;;-2.86;100.00
27334;BME280;14817;57.104;-2.094;2023-01-16T08:08:40;97821.25;;;-2.80;100.00
27334;BME280;14817;57.104;-2.094;2023-01-16T08:11:07;97829.81;;;-2.78;100.00
27334;BME280;14817;57.104;-2.094;2023-01-16T08:13:52;97832.31;;;-2.77;100.00
27334;BME280;14817;57.104;-2.094;2023-01-16T08:16:18;97828.00;;;-2.78;100.00
27334;BME280;14817;57.104;-2.094;2023-01-16T08:18:45;97827.06;;;-2.77;100.00
27334;BME280;14817;57.104;-2.094;2023-01-16T08:21:15;97827.88;;;-2.76;100.00
27334;BME280;14817;57.104;-2.094;2023-01-16T08:23:43;97826.25;;;-2.77;100.00
27334;BME280;14817;57.104;-2.094;2023-01-16T08:26:11;97831.47;;;-2.77;100.00
27334;BME280;14817;57.104;-2.094;2023-01-16T08:28:39;97832.72;;;-2.81;100.00
27334;BME280;14817;57.104;-2.094;2023-01-16T08:31:06;97832.84;;;-2.83;100.00
27334;BME280;14817;57.104;-2.094;2023-01-16T08:33:35;97829.41;;;-2.83;100.00
27334;BME280;14817;57.104;-2.094;2023-01-16T08:36:03;97824.84;;;-2.81;100.00
27334;BME280;14817;57.104;-2.094;2023-01-16T08:38:30;97828.72;;;-2.85;100.00
27334;BME280;14817;57.104;-2.094;2023-01-16T08:40:57;97831.03;;;-2.82;100.00
27334;BME280;14817;57.104;-2.094;2023-01-16T08:43:24;97833.66;;;-2.82;100.00
27334;BME280;14817;57.104;-2.094;2023-01-16T08:46:19;97830.88;;;-2.91;100.00
27334;BME280;14817;57.104;-2.094;2023-01-16T08:49:05;97834.34;;;-2.90;100.00
27334;BME280;14817;57.104;-2.094;2023-01-16T08:51:54;97832.97;;;-2.94;100.00
27334;BME280;14817;57.104;-2.094;2023-01-16T08:54:21;97832.81;;;-2.93;100.00
27334;BME280;14817;57.104;-2.094;2023-01-16T08:56:48;97828.41;;;-2.92;100.00
27334;BME280;14817;57.104;-2.094;2023-01-16T08:59:14;97830.34;;;-2.94;100.00
27334;BME280;14817;57.104;-2.094;2023-01-16T09:01:41;97831.03;;;-2.82;100.00
27334;BME280;14817;57.104;-2.094;2023-01-16T09:04:08;97820.03;;;-2.76;100.00
27334;BME280;14817;57.104;-2.094;2023-01-16T09:06:35;97821.94;;;-2.78;100.00
27334;BME280;14817;57.104;-2.094;2023-01-16T09:09:04;97814.38;;;-2.72;100.00
27334;BME280;14817;57.104;-2.094;2023-01-16T09:11:32;97804.22;;;-2.36;100.00
27334;BME280;14817;57.104;-2.094;2023-01-16T09:14:17;97807.69;;;-1.59;100.00
27334;BME280;14817;57.104;-2.094;2023-01-16T09:16:51;97798.69;;;-1.19;100.00
27334;BME280;14817;57.104;-2.094;2023-01-16T09:19:18;97800.44;;;-0.82;100.00
27334;BME280;14817;57.104;-2.094;2023-01-16T09:21:45;97801.09;;;-0.80;100.00
27334;BME280;14817;57.104;-2.094;2023-01-16T09:24:11;97794.75;;;-0.42;100.00
27334;BME280;14817;57.104;-2.094;2023-01-16T09:26:38;97793.69;;;-0.31;100.00
27334;BME280;14817;57.104;-2.094;2023-01-16T09:31:40;97788.22;;;-0.37;100.00
27334;BME280;14817;57.104;-2.094;2023-01-16T09:34:07;97785.56;;;-0.19;100.00
27334;BME280;14817;57.104;-2.094;2023-01-16T09:36:34;97773.97;;;0.09;100.00
27334;BME280;14817;57.104;-2.094;2023-01-16T09:39:00;97768.81;;;0.26;100.00
27334;BME280;14817;57.104;-2.094;2023-01-16T09:41:32;97779.63;;;-0.04;100.00
27334;BME280;14817;57.104;-2.094;2023-01-16T09:44:21;97773.97;;;0.09;100.00
27334;BME280;14817;57.104;-2.094;2023-01-16T09:46:48;97759.84;;;0.45;100.00
27334;BME280;14817;57.104;-2.094;2023-01-16T09:49:21;97764.25;;;0.62;100.00
27334;BME280;14817;57.104;-2.094;2023-01-16T09:51:55;97760.50;;;0.73;100.00
27334;BME280;14817;57.104;-2.094;2023-01-16T09:54:44;97769.06;;;0.75;100.00
27334;BME280;14817;57.104;-2.094;2023-01-16T09:57:32;97764.81;;;0.82;100.00
27334;BME280;14817;57.104;-2.094;2023-01-16T10:00:18;97768.41;;;0.81;100.00
27334;BME280;14817;57.104;-2.094;2023-01-16T10:02:46;97762.34;;;0.89;100.00
27334;BME280;14817;57.104;-2.094;2023-01-16T10:05:13;97770.81;;;1.09;100.00
27334;BME280;14817;57.104;-2.094;2023-01-16T10:07:57;97774.34;;;0.75;100.00
27334;BME280;14817;57.104;-2.094;2023-01-16T10:10:33;97779.72;;;1.08;100.00
27334;BME280;14817;57.104;-2.094;2023-01-16T10:23:30;97771.22;;;1.47;100.00
27334;BME280;14817;57.104;-2.094;2023-01-16T10:31:21;97763.69;;;1.76;100.00
27334;BME280;14817;57.104;-2.094;2023-01-16T10:33:52;97747.50;;;1.47;100.00
27334;BME280;14817;57.104;-2.094;2023-01-16T10:36:25;97754.13;;;1.75;100.00
27334;BME280;14817;57.104;-2.094;2023-01-16T10:38:54;97752.16;;;1.69;100.00
27334;BME280;14817;57.104;-2.094;2023-01-16T10:41:24;97744.88;;;1.30;100.00
27334;BME280;14817;57.104;-2.094;2023-01-16T10:44:58;97746.53;;;1.56;100.00
27334;BME280;14817;57.104;-2.094;2023-01-16T10:47:32;97744.72;;;1.48;100.00
27334;BME280;14817;57.104;-2.094;2023-01-16T10:50:19;97738.06;;;1.28;100.00
27334;BME280;14817;57.104;-2.094;2023-01-16T10:53:03;97740.19;;;1.08;100.00
27334;BME280;14817;57.104;-2.094;2023-01-16T10:55:30;97735.72;;;1.08;100.00
27334;BME280;14817;57.104;-2.094;2023-01-16T10:58:00;97730.47;;;1.16;100.00
27334;BME280;14817;57.104;-2.094;2023-01-16T11:00:32;97729.13;;;1.04;100.00
27334;BME280;14817;57.104;-2.094;2023-01-16T11:05:40;97732.56;;;0.88;100.00
27334;BME280;14817;57.104;-2.094;2023-01-16T11:08:11;97723.28;;;0.76;100.00
27334;BME280;14817;57.104;-2.094;2023-01-16T11:10:38;97731.38;;;0.82;100.00
27334;BME280;14817;57.104;-2.094;2023-01-16T11:13:10;97734.47;;;0.70;100.00
27334;BME280;14817;57.104;-2.094;2023-01-16T11:18:58;97734.53;;;0.86;100.00
27334;BME280;14817;57.104;-2.094;2023-01-16T11:21:31;97739.91;;;0.76;100.00
27334;BME280;14817;57.104;-2.094;2023-01-16T11:24:14;97737.28;;;0.76;100.00
27334;BME280;14817;57.104;-2.094;2023-01-16T11:26:42;97726.25;;;0.81;100.00
27334;BME280;14817;57.104;-2.094;2023-01-16T11:29:15;97724.50;;;0.90;100.00
27334;BME280;14817;57.104;-2.094;2023-01-16T11:31:47;97720.63;;;0.68;100.00
27334;BME280;14817;57.104;-2.094;2023-01-16T11:34:15;97710.28;;;0.74;100.00
27334;BME280;14817;57.104;-2.094;2023-01-16T11:36:41;97708.31;;;0.76;100.00
27334;BME280;14817;57.104;-2.094;2023-01-16T11:39:16;97710.25;;;0.66;100.00
27334;BME280;14817;57.104;-2.094;2023-01-16T11:41:44;97709.63;;;0.80;100.00
27334;BME280;14817;57.104;-2.094;2023-01-16T11:44:13;97709.50;;;0.82;100.00
27334;BME280;14817;57.104;-2.094;2023-01-16T11:46:59;97700.78;;;0.81;100.00
27334;BME280;14817;57.104;-2.094;2023-01-16T11:49:36;97698.28;;;0.80;100.00
27334;BME280;14817;57.104;-2.094;2023-01-16T11:52:04;97689.38;;;0.81;100.00
27334;BME280;14817;57.104;-2.094;2023-01-16T11:54:31;97682.94;;;0.67;100.00
27334;BME280;14817;57.104;-2.094;2023-01-16T11:57:32;97692.31;;;0.70;100.00
27334;BME280;14817;57.104;-2.094;2023-01-16T12:02:42;97676.16;;;0.56;100.00
27334;BME280;14817;57.104;-2.094;2023-01-16T12:05:25;97679.75;;;0.55;100.00
27334;BME280;14817;57.104;-2.094;2023-01-16T12:13:20;97661.50;;;0.54;100.00
27334;BME280;14817;57.104;-2.094;2023-01-16T12:21:09;97648.50;;;0.52;100.00
27334;BME280;14817;57.104;-2.094;2023-01-16T12:26:38;97653.44;;;0.55;100.00
27334;BME280;14817;57.104;-2.094;2023-01-16T12:29:21;97648.81;;;0.57;100.00
27334;BME280;14817;57.104;-2.094;2023-01-16T12:45:51;97633.69;;;0.51;100.00
27334;BME280;14817;57.104;-2.094;2023-01-16T12:58:32;97628.56;;;0.50;100.00
27334;BME280;14817;57.104;-2.094;2023-01-16T13:03:31;97621.31;;;0.44;100.00
27334;BME280;14817;57.104;-2.094;2023-01-16T13:06:09;97610.94;;;0.42;100.00
27334;BME280;14817;57.104;-2.094;2023-01-16T13:08:43;97611.94;;;0.41;100.00
27334;BME280;14817;57.104;-2.094;2023-01-16T13:11:16;97610.94;;;0.42;100.00
27334;BME280;14817;57.104;-2.094;2023-01-16T13:14:05;97604.72;;;0.43;100.00
27334;BME280;14817;57.104;-2.094;2023-01-16T13:16:40;97593.66;;;0.39;100.00
27334;BME280;14817;57.104;-2.094;2023-01-16T13:19:14;97595.63;;;0.37;100.00
27334;BME280;14817;57.104;-2.094;2023-01-16T13:21:50;97590.50;;;0.36;100.00
27334;BME280;14817;57.104;-2.094;2023-01-16T13:24:35;97579.16;;;0.35;100.00
27334;BME280;14817;57.104;-2.094;2023-01-16T13:27:09;97583.28;;;0.38;100.00
27334;BME280;14817;57.104;-2.094;2023-01-16T13:29:39;97578.19;;;0.36;100.00
27334;BME280;14817;57.104;-2.094;2023-01-16T13:32:13;97592.81;;;0.31;100.00
27334;BME280;14817;57.104;-2.094;2023-01-16T13:37:47;97570.94;;;0.30;100.00
27334;BME280;14817;57.104;-2.094;2023-01-16T13:40:26;97573.03;;;0.18;100.00
27334;BME280;14817;57.104;-2.094;2023-01-16T13:43:01;97580.25;;;0.16;100.00
27334;BME280;14817;57.104;-2.094;2023-01-16T13:45:53;97576.66;;;0.17;100.00
27334;BME280;14817;57.104;-2.094;2023-01-16T13:48:26;97577.16;;;0.21;100.00
27334;BME280;14817;57.104;-2.094;2023-01-16T13:50:56;97576.31;;;0.20;100.00
27334;BME280;14817;57.104;-2.094;2023-01-16T13:53:30;97564.66;;;0.23;100.00
27334;BME280;14817;57.104;-2.094;2023-01-16T13:56:05;97561.06;;;0.24;100.00
27334;BME280;14817;57.104;-2.094;2023-01-16T13:58:33;97562.53;;;0.27;100.00
27334;BME280;14817;57.104;-2.094;2023-01-16T14:01:04;97559.91;;;0.27;100.00
27334;BME280;14817;57.104;-2.094;2023-01-16T14:03:32;97559.56;;;0.22;100.00
27334;BME280;14817;57.104;-2.094;2023-01-16T14:17:11;97573.97;;;0.01;100.00
27334;BME280;14817;57.104;-2.094;2023-01-16T14:19:41;97566.53;;;-0.04;100.00
27334;BME280;14817;57.104;-2.094;2023-01-16T14:22:16;97564.41;;;-0.08;100.00
27334;BME280;14817;57.104;-2.094;2023-01-16T14:24:44;97567.94;;;-0.17;100.00
27334;BME280;14817;57.104;-2.094;2023-01-16T14:27:12;97562.88;;;-0.19;100.00
27334;BME280;14817;57.104;-2.094;2023-01-16T14:29:48;97563.84;;;-0.20;100.00
27334;BME280;14817;57.104;-2.094;2023-01-16T14:32:17;97575.19;;;-0.19;100.00
27334;BME280;14817;57.104;-2.094;2023-01-16T14:39:55;97582.56;;;-0.23;100.00
27334;BME280;14817;57.104;-2.094;2023-01-16T14:45:18;97592.63;;;-0.18;100.00
27334;BME280;14817;57.104;-2.094;2023-01-16T14:50:59;97601.19;;;-0.16;100.00
27334;BME280;14817;57.104;-2.094;2023-01-16T14:53:46;97606.44;;;-0.16;100.00
27334;BME280;14817;57.104;-2.094;2023-01-16T14:56:34;97605.41;;;-0.24;100.00
27334;BME280;14817;57.104;-2.094;2023-01-16T14:59:05;97608.53;;;-0.20;100.00
27334;BME280;14817;57.104;-2.094;2023-01-16T15:01:37;97595.88;;;-0.25;100.00
27334;BME280;14817;57.104;-2.094;2023-01-16T15:04:26;97595.72;;;-0.23;100.00
27334;BME280;14817;57.104;-2.094;2023-01-16T15:06:56;97608.19;;;-0.25;100.00
27334;BME280;14817;57.104;-2.094;2023-01-16T15:09:28;97596.41;;;-0.21;100.00
27334;BME280;14817;57.104;-2.094;2023-01-16T15:12:02;97595.88;;;-0.25;100.00
27334;BME280;14817;57.104;-2.094;2023-01-16T15:14:34;97597.69;;;-0.25;100.00
27334;BME280;14817;57.104;-2.094;2023-01-16T15:22:45;97593.56;;;-0.28;100.00
27334;BME280;14817;57.104;-2.094;2023-01-16T15:25:35;97576.13;;;-0.29;100.00
27334;BME280;14817;57.104;-2.094;2023-01-16T15:30:35;97589.22;;;-0.37;100.00
27334;BME280;14817;57.104;-2.094;2023-01-16T15:33:02;97585.09;;;-0.39;100.00